Wooster, OH (44691)

9:57 PM EDT on August 29, 2015 (GMT -0400)
Silver Rd - Wooster, OH | | Change Station
CLOSE
Current Station
Personal Weather Station
Location: Wooster, OH
Elevation: 971 ft
Nearby Weather Stations

Elev 971 ft 40.81 °N, 82.00 °W | Updated 3 minutes ago

Partly Cloudy
Partly Cloudy
70.8 °F
Feels Like 70 °F
N
0.0
Wind Variable Wind from North

Today
High -- | Low -- °F
--% Chance of Precip.
Yesterday
High -- | Low -- °F
Precip. -- in
6:51 AM 8:05 PM
Full, 100% visible
Pressure 30.07 in
Visibility 10.0 miles
Clouds Clear
Heat Index 70 °F
Dew Point 65 °F
Humidity 83%
Rainfall Not available.
Snow Depth Not available.
UV 0 out of 12
Pollen 10.00 out of 12
Air Quality Not available.
Flu Activity Not available.
METAR KBJJ 300056Z AUTO 21003KT 10SM CLR 22/18 A3008 RMK AO2 SLP183 T02220178 TSNO
Pressure 30.07 in
Visibility 10.0 miles
Clouds Clear
Heat Index 70 °F
Dew Point 65 °F
Humidity 83%
Rainfall Not available.
Snow Depth Not available.
UV 0 out of 12
Pollen 10.00 out of 12
Air Quality Not available.
Flu Activity Not available.
METAR KBJJ 300056Z AUTO 21003KT 10SM CLR 22/18 A3008 RMK AO2 SLP183 T02220178 TSNO

10-Day Weather Forecast

×

Almanac

Astronomy

Aug. 29, 2015 Rise Set
Actual Time
Civil Twilight
Nautical Twilight
Astronomical Twilight
Moon
Length of Visible Light
Length of Day
Tomorrow will be .
, % of the Moon is Illuminated

Today's Extremes

State Highs State Lows

Community

WunderPhotos

Upload Photos

1,850,826 photos uploaded!

WunderBlogs® & News

Nearby

Air Quality

  Air Quality AQ Index Pollutant
Not available.

Snow Depth

Station Depth Elevation

Earthquake Activity

City Distance Mag. Time & Date
Minimum magnitude displayed is 2.5.

Coastal Water Temperatures

Place Temperature

Stations

Nearby Weather Stations

Station Location Temp. Windchill Dew Point Humidity Wind Precip. Elev Updated Type